Time;durP1;ratioP1;P1;durP2;ratioP2;P2;SDS_P1;SDS_P2;PMS_P1;PMS_P2;Temp;Humidity;BMP_temperature;BMP_pressure;BME280_temperature;BME280_humidity;BME280_pressure;Samples;Min_cycle;Max_cycle;Signal;HPM_P1;HPM_P2
2023/01/03 00:02:03;;;;;;;81.20;45.17;;;;;;;3.21;100.00;98662.16;1751175;81;21965;-78
2023/01/03 00:04:29;;;;;;;67.05;32.73;;;;;;;3.21;100.00;98672.05;1731812;82;21055;-76
2023/01/03 00:06:56;;;;;;;73.52;43.08;;;;;;;3.18;100.00;98682.69;1723484;82;21466;-77
2023/01/03 00:09:23;;;;;;;74.42;37.10;;;;;;;3.38;100.00;98686.56;1731996;82;20979;-76
2023/01/03 00:14:40;;;;;;;74.75;43.45;;;;;;;3.57;100.00;98681.56;1732076;82;21011;-77
2023/01/03 00:17:08;;;;;;;77.45;42.35;;;;;;;3.57;100.00;98689.60;1751086;81;21073;-77
2023/01/03 00:19:38;;;;;;;81.70;44.15;;;;;;;3.40;100.00;98690.66;1731981;82;21022;-77
2023/01/03 00:22:05;;;;;;;59.48;34.27;;;;;;;3.24;100.00;98685.81;1751194;81;21188;-77
2023/01/03 00:24:32;;;;;;;53.63;24.85;;;;;;;3.23;100.00;98678.00;1731912;82;20980;-77
2023/01/03 00:26:59;;;;;;;54.73;29.92;;;;;;;3.48;100.00;98679.38;1751087;81;21057;-77
2023/01/03 00:29:26;;;;;;;50.10;28.55;;;;;;;3.90;100.00;98674.58;1732068;82;21011;-78
2023/01/03 00:31:53;;;;;;;43.68;23.83;;;;;;;4.24;100.00;98673.72;1751212;81;21471;-77
2023/01/03 00:34:20;;;;;;;25.08;15.63;;;;;;;4.54;100.00;98680.52;1742897;82;21055;-77
2023/01/03 00:36:47;;;;;;;55.25;27.77;;;;;;;4.89;100.00;98685.25;1762623;81;21056;-78
2023/01/03 00:39:13;;;;;;;41.70;24.12;;;;;;;5.09;100.00;98686.61;1745024;82;20985;-78
2023/01/03 00:41:40;;;;;;;57.33;32.15;;;;;;;5.18;100.00;98695.70;1762556;81;21595;-77
2023/01/03 00:44:07;;;;;;;54.90;31.50;;;;;;;5.19;100.00;98701.36;1744957;82;20988;-78
2023/01/03 00:46:35;;;;;;;65.45;36.23;;;;;;;5.07;100.00;98694.61;1762701;81;21671;-77
2023/01/03 00:49:02;;;;;;;65.62;36.38;;;;;;;5.01;100.00;98694.98;1744852;81;21165;-77
2023/01/03 00:51:32;;;;;;;68.35;32.50;;;;;;;4.87;100.00;98704.28;1762616;81;21012;-78
2023/01/03 00:54:00;;;;;;;61.28;34.38;;;;;;;4.74;100.00;98703.91;1762644;81;21020;-77
2023/01/03 00:56:30;;;;;;;68.80;37.90;;;;;;;4.64;100.00;98701.47;1747696;81;21042;-77
2023/01/03 00:58:57;;;;;;;53.10;28.10;;;;;;;4.51;100.00;98709.13;1761258;81;21063;-78
2023/01/03 01:01:28;;;;;;;71.40;35.20;;;;;;;4.31;100.00;98705.34;1761055;81;21535;-77
2023/01/03 01:04:05;;;;;;;70.47;32.78;;;;;;;4.19;100.00;98711.15;1761130;81;21082;-78
2023/01/03 01:06:38;;;;;;;65.40;33.00;;;;;;;4.11;100.00;98711.43;1759834;81;20999;-77
2023/01/03 01:09:07;;;;;;;48.38;23.38;;;;;;;4.10;100.00;98724.52;1761329;81;21011;-78
2023/01/03 01:11:34;;;;;;;62.00;35.30;;;;;;;4.11;100.00;98731.02;1761331;81;21185;-77
2023/01/03 01:14:00;;;;;;;70.83;40.15;;;;;;;4.14;100.00;98732.44;1761163;81;21460;-77
2023/01/03 01:16:30;;;;;;;52.43;27.80;;;;;;;4.19;100.00;98733.95;1761255;81;20984;-78
2023/01/03 01:19:00;;;;;;;49.18;30.65;;;;;;;4.30;100.00;98733.21;1761189;81;21015;-76
2023/01/03 01:21:30;;;;;;;44.98;26.12;;;;;;;4.43;100.00;98737.61;1761288;81;21440;-77
2023/01/03 01:23:58;;;;;;;39.40;20.52;;;;;;;4.59;100.00;98740.23;1761128;81;21295;-78
2023/01/03 01:26:25;;;;;;;36.77;17.07;;;;;;;4.77;100.00;98740.22;1761368;81;21010;-78
2023/01/03 01:28:53;;;;;;;56.00;29.98;;;;;;;5.00;100.00;98739.02;1761165;81;20995;-78
2023/01/03 01:31:23;;;;;;;58.33;30.08;;;;;;;5.10;100.00;98737.95;1761273;81;21070;-77
2023/01/03 01:33:51;;;;;;;49.60;24.82;;;;;;;5.08;100.00;98737.36;1758754;81;21020;-78
2023/01/03 01:36:30;;;;;;;42.38;22.75;;;;;;;5.04;100.00;98738.03;1758121;81;21191;-77
2023/01/03 01:39:00;;;;;;;32.13;15.68;;;;;;;5.10;100.00;98730.41;1745820;81;20974;-77
2023/01/03 01:44:57;;;;;;;51.70;24.67;;;;;;;5.38;100.00;98730.66;1672589;85;21511;-78
2023/01/03 01:47:56;;;;;;;48.28;27.50;;;;;;;5.29;100.00;98739.25;1672762;85;21032;-78
2023/01/03 01:50:44;;;;;;;52.35;29.77;;;;;;;5.08;100.00;98734.67;1752970;81;25837;-77
2023/01/03 01:53:23;;;;;;;61.90;34.43;;;;;;;4.95;100.00;98738.04;1702475;84;21424;-77
2023/01/03 01:55:58;;;;;;;65.57;35.00;;;;;;;4.73;100.00;98735.84;1733815;81;21065;-79
2023/01/03 01:58:28;;;;;;;64.60;39.88;;;;;;;4.60;100.00;98745.89;1772957;80;21532;-77
2023/01/03 02:00:55;;;;;;;69.00;44.08;;;;;;;4.44;100.00;98737.91;1744601;80;21012;-77
2023/01/03 02:03:22;;;;;;;70.22;38.75;;;;;;;4.32;100.00;98736.48;1772749;80;21496;-78
2023/01/03 02:05:52;;;;;;;77.80;42.13;;;;;;;4.24;100.00;98736.77;1772866;80;21047;-78
2023/01/03 02:08:20;;;;;;;47.03;28.67;;;;;;;4.14;100.00;98747.19;1772909;80;21008;-77
2023/01/03 02:11:18;;;;;;;75.12;42.35;;;;;;;4.09;100.00;98752.38;1744720;80;21012;-78
2023/01/03 02:14:30;;;;;;;65.72;36.28;;;;;;;3.98;100.00;98747.75;1772742;80;20995;-77
2023/01/03 02:17:15;;;;;;;72.90;41.08;;;;;;;3.86;100.00;98740.94;1772870;80;21047;-77
2023/01/03 02:20:14;;;;;;;74.07;42.10;;;;;;;3.69;100.00;98737.98;1772596;80;21043;-77
2023/01/03 02:23:32;;;;;;;60.40;36.48;;;;;;;3.68;100.00;98730.98;1772041;80;21003;-77
2023/01/03 02:26:14;;;;;;;66.90;34.75;;;;;;;3.68;100.00;98739.84;1768425;81;21064;-78
2023/01/03 02:29:02;;;;;;;68.00;38.53;;;;;;;3.72;100.00;98742.89;1768989;81;21095;-78
2023/01/03 02:31:37;;;;;;;76.83;44.07;;;;;;;3.66;100.00;98744.58;1746004;82;21730;-78
2023/01/03 02:34:22;;;;;;;80.45;43.58;;;;;;;3.57;100.00;98735.16;1745046;82;21444;-77
2023/01/03 02:36:57;;;;;;;79.00;42.38;;;;;;;3.52;100.00;98739.03;1762844;81;21008;-77
2023/01/03 02:39:29;;;;;;;85.10;46.53;;;;;;;3.43;100.00;98740.33;1762570;81;21021;-77
2023/01/03 02:44:54;;;;;;;75.12;42.90;;;;;;;3.26;100.00;98752.59;1759831;81;21055;-78
2023/01/03 02:47:21;;;;;;;65.05;34.30;;;;;;;3.25;100.00;98754.45;1757764;81;20999;-78
2023/01/03 02:49:50;;;;;;;70.20;39.95;;;;;;;3.33;100.00;98759.56;1759852;81;21046;-78
2023/01/03 02:52:23;;;;;;;70.65;40.58;;;;;;;3.38;100.00;98761.05;1760022;81;21062;-77
2023/01/03 02:55:04;;;;;;;73.47;41.10;;;;;;;3.42;100.00;98760.13;1759867;81;20999;-78
2023/01/03 02:57:36;;;;;;;69.17;38.75;;;;;;;3.41;100.00;98759.80;1733938;82;21031;-77
2023/01/03 03:00:11;;;;;;;63.38;35.92;;;;;;;3.42;100.00;98772.67;1733021;82;21487;-77
2023/01/03 03:02:38;;;;;;;72.87;38.50;;;;;;;3.43;100.00;98774.34;1733788;82;21095;-77
2023/01/03 03:05:08;;;;;;;72.22;39.13;;;;;;;3.34;100.00;98776.45;1734134;82;21448;-78
2023/01/03 03:07:38;;;;;;;63.73;36.45;;;;;;;3.33;100.00;98776.97;1704697;82;21043;-77
2023/01/03 03:13:13;;;;;;;67.53;37.67;;;;;;;3.30;100.00;98778.72;1733838;82;21150;-78
2023/01/03 03:16:01;;;;;;;51.02;27.75;;;;;;;3.31;100.00;98773.66;1734191;82;21070;-78
2023/01/03 03:18:42;;;;;;;73.25;36.83;;;;;;;3.38;100.00;98777.66;1733983;82;21019;-78
2023/01/03 03:26:44;;;;;;;;;;;;;;;3.37;100.00;98779.51;1736344;82;20999;-77
2023/01/03 03:29:15;;;;;;;50.28;22.75;;;;;;;3.39;100.00;98784.13;1733985;82;20167;-77
2023/01/03 03:31:49;;;;;;;63.50;32.25;;;;;;;3.40;100.00;98787.11;1733904;82;21027;-77
2023/01/03 03:34:30;;;;;;;64.75;36.08;;;;;;;3.43;100.00;98785.05;1757744;81;21019;-77
2023/01/03 03:37:09;;;;;;;54.58;27.00;;;;;;;3.46;100.00;98789.98;1764327;81;21685;-76
2023/01/03 03:45:50;;;;;;;36.85;21.33;;;;;;;3.75;100.00;98789.88;1764351;81;21055;-77
2023/01/03 03:49:36;;;;;;;50.43;30.48;;;;;;;3.86;100.00;98799.41;1764030;81;21471;-77
2023/01/03 03:51:11;;;;;;;49.48;30.08;;;;;;;4.02;100.00;98793.22;1759873;81;21460;-77
2023/01/03 03:53:38;;;;;;;45.52;27.42;;;;;;;4.12;100.00;98795.70;1763889;80;20991;-77
2023/01/03 03:56:11;;;;;;;54.18;31.02;;;;;;;4.20;100.00;98803.47;1764384;81;21007;-77
2023/01/03 03:58:41;;;;;;;53.55;28.92;;;;;;;4.26;100.00;98805.78;1764051;81;20999;-78
2023/01/03 04:01:13;;;;;;;48.55;26.10;;;;;;;4.32;100.00;98803.56;1764603;81;21535;-77
2023/01/03 04:03:41;;;;;;;45.40;27.00;;;;;;;4.41;100.00;98809.47;1763880;80;21739;-77
2023/01/03 04:06:25;;;;;;;41.20;25.97;;;;;;;4.48;100.00;98808.89;1764539;81;21055;-77
2023/01/03 04:08:52;;;;;;;40.00;25.65;;;;;;;4.55;100.00;98815.03;1763129;81;21031;-77
2023/01/03 04:11:19;;;;;;;37.73;23.57;;;;;;;4.64;100.00;98824.95;1764172;81;21623;-78
2023/01/03 04:13:46;;;;;;;43.10;26.00;;;;;;;4.62;100.00;98831.89;1764122;81;21031;-77
2023/01/03 04:16:13;;;;;;;41.85;27.30;;;;;;;4.55;100.00;98841.05;1764420;81;21821;-77
2023/01/03 04:18:40;;;;;;;50.78;31.07;;;;;;;4.48;100.00;98847.81;1764071;81;21039;-77
2023/01/03 04:21:07;;;;;;;44.50;29.63;;;;;;;4.44;100.00;98864.89;1764459;81;21015;-77
2023/01/03 04:23:34;;;;;;;40.23;27.70;;;;;;;4.45;100.00;98873.76;1764024;81;21007;-77
2023/01/03 04:26:01;;;;;;;53.65;30.65;;;;;;;4.42;100.00;98882.23;1764531;81;21066;-78
2023/01/03 04:28:27;;;;;;;58.65;32.23;;;;;;;4.46;100.00;98868.17;1764130;81;21017;-77
2023/01/03 04:30:54;;;;;;;52.43;29.80;;;;;;;4.49;100.00;98860.19;1764394;81;21011;-77
2023/01/03 04:33:21;;;;;;;64.55;40.25;;;;;;;4.50;100.00;98868.53;1763479;81;21032;-77
2023/01/03 04:35:48;;;;;;;63.42;35.55;;;;;;;4.62;100.00;98861.95;1745238;82;21013;-78
2023/01/03 04:38:15;;;;;;;68.60;41.33;;;;;;;4.67;100.00;98874.17;1762490;81;21015;-78
2023/01/03 04:40:42;;;;;;;77.85;45.20;;;;;;;4.55;100.00;98870.05;1762840;81;21096;-78
2023/01/03 04:45:55;;;;;;;63.00;38.95;;;;;;;4.46;100.00;98868.17;1762606;81;21404;-77
2023/01/03 04:48:22;;;;;;;66.87;42.88;;;;;;;4.42;100.00;98869.63;1744957;82;20978;-77
2023/01/03 04:50:57;;;;;;;58.05;33.63;;;;;;;4.47;100.00;98871.15;1762931;81;21020;-78
2023/01/03 04:53:25;;;;;;;65.12;37.50;;;;;;;4.54;100.00;98873.78;1762499;81;21052;-77
2023/01/03 04:55:52;;;;;;;68.92;38.10;;;;;;;4.61;100.00;98881.75;1758969;81;20994;-78
2023/01/03 04:58:19;;;;;;;57.10;35.20;;;;;;;4.67;100.00;98875.52;1752066;81;21069;-79
2023/01/03 05:00:46;;;;;;;61.90;34.63;;;;;;;4.64;100.00;98882.16;1752265;81;21002;-78
2023/01/03 05:03:13;;;;;;;65.20;40.55;;;;;;;4.62;100.00;98882.08;1752078;81;21017;-77
2023/01/03 05:05:40;;;;;;;65.37;39.23;;;;;;;4.55;100.00;98887.50;1751977;81;21006;-77
2023/01/03 05:08:10;;;;;;;62.13;37.38;;;;;;;4.55;100.00;98881.31;1751963;81;21009;-77
2023/01/03 05:10:37;;;;;;;70.30;42.48;;;;;;;4.58;100.00;98876.84;1752258;81;21061;-78
2023/01/03 05:13:04;;;;;;;67.82;44.58;;;;;;;4.52;100.00;98883.89;1752051;81;21489;-78
2023/01/03 05:15:35;;;;;;;85.53;46.18;;;;;;;4.50;100.00;98884.12;1752373;81;21009;-77
2023/01/03 05:18:03;;;;;;;72.60;48.52;;;;;;;4.49;100.00;98886.50;1752396;81;21004;-78
2023/01/03 05:26:05;;;;;;;67.10;43.78;;;;;;;4.48;100.00;98894.78;1752475;81;21462;-78
2023/01/03 05:28:31;;;;;;;65.83;42.98;;;;;;;4.49;100.00;98895.08;1725104;81;21481;-77
2023/01/03 05:30:59;;;;;;;74.67;46.20;;;;;;;4.52;100.00;98902.16;1752428;81;21069;-78
2023/01/03 05:33:26;;;;;;;72.45;39.50;;;;;;;4.53;100.00;98896.30;1757120;81;21512;-78
2023/01/03 05:35:52;;;;;;;67.30;44.67;;;;;;;4.55;100.00;98891.53;1762877;81;20996;-77
2023/01/03 05:38:20;;;;;;;68.22;40.08;;;;;;;4.57;100.00;98900.70;1762524;81;21094;-77
2023/01/03 05:40:46;;;;;;;60.80;37.55;;;;;;;4.55;100.00;98896.08;1745232;81;21020;-77
2023/01/03 05:43:14;;;;;;;74.67;42.35;;;;;;;4.55;100.00;98896.90;1762758;81;21540;-79
2023/01/03 05:45:41;;;;;;;73.30;41.37;;;;;;;4.55;100.00;98902.27;1745063;82;21108;-78
2023/01/03 05:48:08;;;;;;;70.75;45.55;;;;;;;4.59;100.00;98910.69;1732615;81;21514;-77
2023/01/03 05:50:34;;;;;;;76.02;44.95;;;;;;;4.64;100.00;98907.66;1762932;81;21004;-78
2023/01/03 05:53:02;;;;;;;68.10;41.70;;;;;;;4.69;100.00;98909.66;1745076;82;20985;-79
2023/01/03 05:55:29;;;;;;;83.58;47.67;;;;;;;4.72;100.00;98920.80;1760672;81;21818;-76
2023/01/03 05:57:56;;;;;;;76.72;49.08;;;;;;;4.75;100.00;98924.38;1752193;81;20997;-78
2023/01/03 06:00:23;;;;;;;82.78;49.60;;;;;;;4.74;100.00;98932.14;1753301;81;21068;-78
2023/01/03 06:02:50;;;;;;;85.57;52.30;;;;;;;4.74;100.00;98946.09;1744328;80;21134;-77
2023/01/03 06:05:17;;;;;;;87.45;51.70;;;;;;;4.71;100.00;98940.65;1743848;81;21013;-77
2023/01/03 06:07:44;;;;;;;80.62;49.35;;;;;;;4.70;100.00;98943.03;1765906;79;21010;-77
2023/01/03 06:10:11;;;;;;;78.92;45.15;;;;;;;4.67;100.00;98943.45;1769939;80;21451;-77
2023/01/03 06:12:38;;;;;;;68.25;45.17;;;;;;;4.69;100.00;98941.36;1746045;81;21001;-77
2023/01/03 06:15:06;;;;;;;79.75;49.05;;;;;;;4.71;100.00;98947.36;1757801;81;21480;-78
2023/01/03 06:20:18;;;;;;;79.15;46.35;;;;;;;4.77;100.00;98948.33;1758951;81;22002;-78
2023/01/03 06:22:45;;;;;;;85.92;49.95;;;;;;;4.77;100.00;98946.46;1745748;82;21048;-77
2023/01/03 06:25:12;;;;;;;85.22;54.20;;;;;;;4.73;100.00;98943.92;1768783;81;21016;-77
2023/01/03 06:27:39;;;;;;;94.90;56.28;;;;;;;4.68;100.00;98950.98;1748198;82;21031;-78
2023/01/03 06:30:08;;;;;;;89.80;56.58;;;;;;;4.64;100.00;98953.82;1735139;81;21034;-77
2023/01/03 06:32:35;;;;;;;;;;;;;;;4.62;100.00;98959.41;1751057;81;21001;-78
2023/01/03 06:35:02;;;;;;;77.42;44.77;;;;;;;4.58;100.00;98960.88;1741529;81;20472;-78
2023/01/03 06:37:29;;;;;;;79.22;47.33;;;;;;;4.59;100.00;98970.56;1753288;81;33275;-79
2023/01/03 06:39:56;;;;;;;87.02;48.98;;;;;;;4.55;100.00;98980.11;1731064;82;21000;-78
2023/01/03 06:42:41;;;;;;;132.27;72.60;;;;;;;4.56;100.00;98981.75;1730825;82;21035;-79
2023/01/03 06:53:21;;;;;;;140.52;82.80;;;;;;;4.70;100.00;99010.65;1731021;82;21019;-78
2023/01/03 06:55:47;;;;;;;122.05;69.22;;;;;;;4.75;100.00;99006.28;1749812;81;21570;-77
2023/01/03 06:58:14;;;;;;;115.32;63.38;;;;;;;4.74;100.00;99015.38;1739975;81;21051;-79
2023/01/03 07:00:42;;;;;;;146.53;77.20;;;;;;;4.79;100.00;99007.51;1753681;81;21408;-77
2023/01/03 07:03:09;;;;;;;161.92;86.97;;;;;;;4.79;100.00;99012.06;1730786;81;21083;-81
2023/01/03 07:05:37;;;;;;;154.32;92.97;;;;;;;4.82;100.00;99014.30;1732292;81;21109;-77
2023/01/03 07:08:04;;;;;;;161.25;96.22;;;;;;;4.84;100.00;99036.90;1755083;80;21031;-78
2023/01/03 07:10:30;;;;;;;138.30;81.78;;;;;;;4.84;100.00;99038.24;1736146;80;21173;-78
2023/01/03 07:15:45;;;;;;;87.27;50.03;;;;;;;4.88;100.00;99041.63;1730869;81;20979;-77
2023/01/03 07:18:12;;;;;;;107.70;62.95;;;;;;;4.96;100.00;99047.26;1740587;81;21007;-77
2023/01/03 07:20:42;;;;;;;90.42;55.55;;;;;;;5.09;100.00;99047.95;1740644;80;21030;-77
2023/01/03 07:23:09;;;;;;;94.55;53.50;;;;;;;5.19;100.00;99047.46;1768519;80;21019;-77
2023/01/03 07:25:40;;;;;;;76.30;49.08;;;;;;;5.21;100.00;99049.44;1762955;80;21098;-77
2023/01/03 07:28:05;;;;;;;81.63;50.83;;;;;;;5.28;100.00;99048.00;1761891;80;28060;-78
2023/01/03 07:30:38;;;;;;;76.60;45.78;;;;;;;5.30;100.00;99047.29;1753958;81;21008;-77
2023/01/03 07:33:06;;;;;;;37.05;21.65;;;;;;;5.35;100.00;99053.63;1747761;81;21029;-79
2023/01/03 07:35:34;;;;;;;23.90;13.72;;;;;;;5.49;100.00;99059.71;1755558;80;21163;-78
2023/01/03 07:38:01;;;;;;;24.87;11.75;;;;;;;5.97;100.00;99054.16;1768354;80;21184;-77
2023/01/03 07:40:28;;;;;;;19.77;12.33;;;;;;;6.24;100.00;99058.20;1750492;80;21284;-79
2023/01/03 07:45:43;;;;;;;20.32;10.82;;;;;;;6.72;100.00;99067.58;1735937;81;21536;-79
2023/01/03 07:48:10;;;;;;;39.10;19.85;;;;;;;6.93;100.00;99064.08;1740905;81;21507;-78
2023/01/03 07:50:37;;;;;;;14.40;8.70;;;;;;;7.10;100.00;99061.55;1760510;81;21078;-77
2023/01/03 07:53:06;;;;;;;11.68;6.42;;;;;;;7.23;100.00;99064.83;1732389;80;21068;-77
2023/01/03 07:55:33;;;;;;;12.03;7.45;;;;;;;7.41;100.00;99073.34;1747405;80;22061;-78
2023/01/03 07:58:00;;;;;;;23.45;15.40;;;;;;;7.57;100.00;99081.27;1747189;80;21012;-79
2023/01/03 08:00:27;;;;;;;27.40;17.15;;;;;;;7.69;100.00;99081.26;1751223;81;21777;-77
2023/01/03 08:02:54;;;;;;;25.23;14.28;;;;;;;7.78;100.00;99090.67;1750846;81;21067;-79
2023/01/03 08:05:22;;;;;;;25.62;16.32;;;;;;;7.79;100.00;99093.66;1755216;80;21076;-77
2023/01/03 08:07:50;;;;;;;23.73;14.07;;;;;;;7.80;100.00;99097.99;1745629;81;21090;-77
2023/01/03 08:13:17;;;;;;;50.05;26.82;;;;;;;7.89;100.00;99096.58;1758954;80;21149;-79
2023/01/03 08:15:53;;;;;;;29.15;15.40;;;;;;;7.88;100.00;99106.55;1740187;80;21396;-79
2023/01/03 08:18:23;;;;;;;23.10;12.65;;;;;;;7.90;100.00;99102.27;1742708;80;21061;-79
2023/01/03 08:20:52;;;;;;;15.63;8.98;;;;;;;7.90;100.00;99105.78;1733271;81;21084;-77
2023/01/03 08:23:22;;;;;;;73.55;32.58;;;;;;;7.85;100.00;99100.26;1744477;81;21071;-77
2023/01/03 08:25:49;;;;;;;55.45;31.77;;;;;;;7.88;100.00;99101.69;1756561;81;21039;-77
2023/01/03 08:28:16;;;;;;;67.22;36.70;;;;;;;7.84;100.00;99107.25;1752503;79;21011;-77
2023/01/03 08:30:45;;;;;;;84.85;46.20;;;;;;;7.73;100.00;99101.33;1752882;80;21016;-77
2023/01/03 08:33:14;;;;;;;115.37;61.35;;;;;;;7.67;100.00;99100.38;1753163;80;21033;-77
2023/01/03 08:35:46;;;;;;;222.75;98.35;;;;;;;7.60;100.00;99114.51;1734610;81;21038;-77
2023/01/03 08:38:16;;;;;;;163.82;87.62;;;;;;;7.52;100.00;99114.35;1731170;81;22082;-79
2023/01/03 08:40:43;;;;;;;229.20;112.22;;;;;;;7.48;100.00;99123.13;1739612;81;21065;-77
2023/01/03 08:43:10;;;;;;;189.00;87.75;;;;;;;7.41;100.00;99129.97;1751509;81;21061;-79
2023/01/03 08:45:38;;;;;;;71.85;36.03;;;;;;;7.45;100.00;99122.26;1748042;81;21015;-77
2023/01/03 08:48:06;;;;;;;49.67;29.65;;;;;;;7.54;100.00;99130.30;1744014;80;21027;-77
2023/01/03 08:50:33;;;;;;;45.03;29.40;;;;;;;7.57;100.00;99132.52;1734853;81;21887;-77
2023/01/03 08:53:00;;;;;;;126.90;66.87;;;;;;;7.64;100.00;99131.89;1745927;81;21007;-77
2023/01/03 08:55:27;;;;;;;93.07;49.73;;;;;;;7.68;100.00;99132.23;1752364;81;21034;-77
2023/01/03 08:57:54;;;;;;;81.22;45.70;;;;;;;7.69;100.00;99131.17;1743223;80;21539;-77
2023/01/03 09:00:21;;;;;;;49.20;28.73;;;;;;;7.64;100.00;99136.75;1747699;80;21475;-77
2023/01/03 09:02:48;;;;;;;44.42;24.98;;;;;;;7.66;100.00;99139.73;1738392;81;21150;-76
2023/01/03 09:05:15;;;;;;;37.60;18.98;;;;;;;7.67;100.00;99140.84;1738599;80;21021;-77
2023/01/03 09:07:43;;;;;;;36.63;19.15;;;;;;;7.70;100.00;99144.45;1750652;80;21088;-77
2023/01/03 09:10:10;;;;;;;37.25;19.35;;;;;;;7.74;100.00;99144.27;1761065;80;21428;-79
2023/01/03 09:12:37;;;;;;;15.60;9.10;;;;;;;7.80;100.00;99147.38;1767732;80;21013;-77
2023/01/03 09:15:06;;;;;;;28.65;15.00;;;;;;;7.89;100.00;99149.20;1743062;81;21907;-77
2023/01/03 09:17:33;;;;;;;39.73;20.12;;;;;;;7.97;100.00;99150.20;1736481;81;27035;-80
2023/01/03 09:20:00;;;;;;;37.10;20.55;;;;;;;8.08;100.00;99149.89;1734814;80;21464;-78
2023/01/03 09:22:26;;;;;;;22.93;14.43;;;;;;;8.17;100.00;99145.24;1792164;80;21056;-79
2023/01/03 09:24:54;;;;;;;32.17;24.90;;;;;;;8.26;100.00;99145.70;1762569;80;21017;-79
2023/01/03 09:27:21;;;;;;;29.67;16.93;;;;;;;8.29;100.00;99146.59;1747590;80;22135;-79
2023/01/03 09:29:48;;;;;;;26.02;15.30;;;;;;;8.35;100.00;99144.31;1738165;81;21035;-77
2023/01/03 09:32:15;;;;;;;14.13;8.43;;;;;;;8.39;100.00;99144.67;1751305;80;21016;-77
2023/01/03 09:34:42;;;;;;;20.88;12.53;;;;;;;8.46;100.00;99139.43;1751203;80;21039;-77
2023/01/03 09:37:09;;;;;;;23.22;12.23;;;;;;;8.46;100.00;99134.03;1762996;80;21559;-79
2023/01/03 09:39:36;;;;;;;16.93;12.55;;;;;;;8.59;100.00;99141.03;1752320;81;21163;-79
2023/01/03 09:44:49;;;;;;;10.03;6.78;;;;;;;8.73;100.00;99142.40;1738129;81;21067;-79
2023/01/03 09:47:20;;;;;;;12.90;6.85;;;;;;;8.82;100.00;99136.08;1716554;82;21027;-77
2023/01/03 09:49:47;;;;;;;12.15;6.67;;;;;;;9.02;100.00;99132.93;1731023;81;21070;-79
2023/01/03 10:04:18;;;;;;;7.58;4.65;;;;;;;9.11;100.00;99139.58;1729824;81;21306;-79
2023/01/03 10:06:56;;;;;;;6.92;4.33;;;;;;;9.10;100.00;99145.23;1724641;80;21735;-79
2023/01/03 10:09:59;;;;;;;7.75;4.35;;;;;;;9.09;100.00;99151.18;1743558;80;21074;-79
2023/01/03 10:12:57;;;;;;;9.15;6.47;;;;;;;9.08;100.00;99150.89;1750199;80;21028;-77
2023/01/03 10:15:56;;;;;;;7.10;4.17;;;;;;;9.04;100.00;99152.42;1753338;80;20999;-77
2023/01/03 10:19:00;;;;;;;8.48;3.75;;;;;;;9.05;100.00;99160.83;1690380;83;21540;-79
2023/01/03 10:21:38;;;;;;;7.45;4.65;;;;;;;9.11;100.00;99156.34;1808456;79;21478;-77
2023/01/03 10:24:24;;;;;;;7.90;4.40;;;;;;;9.15;100.00;99162.39;1809479;77;21492;-77
2023/01/03 10:26:56;;;;;;;9.10;4.15;;;;;;;9.19;99.20;99156.77;1744503;79;20981;-77
2023/01/03 10:29:23;;;;;;;9.13;4.53;;;;;;;9.24;100.00;99142.53;1777285;79;20981;-79
2023/01/03 10:32:33;;;;;;;8.85;4.50;;;;;;;9.29;100.00;99148.83;1808867;77;20981;-79
2023/01/03 10:35:29;;;;;;;11.60;6.90;;;;;;;9.31;99.92;99152.14;1803384;77;21067;-79
2023/01/03 10:37:56;;;;;;;11.80;6.30;;;;;;;9.35;98.98;99155.70;1796639;77;21005;-79
2023/01/03 10:40:46;;;;;;;7.87;5.75;;;;;;;9.32;100.00;99152.42;1801295;77;20999;-79
2023/01/03 10:43:31;;;;;;;11.10;6.65;;;;;;;9.35;100.00;99151.64;1807549;77;21549;-77
2023/01/03 10:46:01;;;;;;;10.20;6.72;;;;;;;9.30;100.00;99141.53;1814486;77;20985;-77
2023/01/03 10:48:41;;;;;;;10.82;7.30;;;;;;;9.24;99.78;99142.00;1798279;77;21179;-79
2023/01/03 10:51:32;;;;;;;10.90;5.37;;;;;;;9.14;97.39;99148.55;1822215;77;20982;-77
2023/01/03 10:54:00;;;;;;;10.90;6.00;;;;;;;9.02;97.24;99143.21;1804972;77;21033;-79
2023/01/03 10:56:29;;;;;;;10.55;4.90;;;;;;;9.00;97.58;99140.47;1800174;77;21044;-77
2023/01/03 10:59:16;;;;;;;10.88;5.28;;;;;;;8.92;96.41;99145.73;1810229;78;20996;-77
2023/01/03 11:02:12;;;;;;;8.23;5.10;;;;;;;8.92;98.54;99139.50;1771806;79;21502;-79
2023/01/03 11:04:39;;;;;;;45.15;25.65;;;;;;;8.90;98.37;99134.88;1805352;77;21072;-77
2023/01/03 11:07:14;;;;;;;42.90;26.55;;;;;;;8.92;99.02;99142.20;1807690;76;21055;-77
2023/01/03 11:09:55;;;;;;;13.60;8.60;;;;;;;8.97;98.71;99144.98;1804553;77;21504;-77
2023/01/03 11:12:37;;;;;;;16.48;7.80;;;;;;;8.91;96.49;99139.22;1805033;79;20992;-77
2023/01/03 11:15:15;;;;;;;15.20;8.13;;;;;;;8.98;98.50;99132.61;1796890;77;21106;-79
2023/01/03 11:18:00;;;;;;;17.37;10.20;;;;;;;9.07;99.09;99121.41;1805846;77;21006;-79
2023/01/03 11:20:45;;;;;;;13.32;6.92;;;;;;;9.12;97.96;99117.42;1771801;77;21083;-79
2023/01/03 11:23:16;;;;;;;13.28;6.40;;;;;;;9.23;98.88;99124.13;1802316;79;20990;-77
2023/01/03 11:26:25;;;;;;;10.23;6.22;;;;;;;9.33;98.74;99112.66;1795973;77;22088;-79
2023/01/03 11:29:03;;;;;;;19.07;7.65;;;;;;;9.35;98.53;99113.77;1799290;77;21060;-79
2023/01/03 11:31:48;;;;;;;16.67;7.92;;;;;;;9.41;98.57;99109.55;1804308;77;21001;-79
2023/01/03 11:34:38;;;;;;;17.80;8.60;;;;;;;9.43;97.90;99117.42;1787794;77;21466;-79
2023/01/03 11:37:48;;;;;;;21.25;9.30;;;;;;;9.45;98.60;99112.58;1778677;77;21048;-77
2023/01/03 11:40:26;;;;;;;11.18;5.65;;;;;;;9.45;98.93;99113.39;1809135;77;21490;-77
2023/01/03 11:43:24;;;;;;;20.48;12.33;;;;;;;9.48;98.40;99110.19;1813132;77;21171;-79
2023/01/03 11:46:48;;;;;;;27.73;12.15;;;;;;;9.52;98.26;99108.64;1783248;78;20985;-77
2023/01/03 11:49:36;;;;;;;20.48;11.73;;;;;;;9.56;98.11;99113.02;1788386;77;21406;-77
2023/01/03 11:52:29;;;;;;;43.75;11.03;;;;;;;9.54;97.96;99108.39;1813350;78;21005;-77
2023/01/03 11:55:06;;;;;;;26.10;12.00;;;;;;;9.56;97.32;99100.84;1815721;77;21001;-77
2023/01/03 11:57:53;;;;;;;16.35;7.78;;;;;;;9.53;97.70;99103.52;1744604;80;21743;-79
2023/01/03 12:00:33;;;;;;;23.50;7.55;;;;;;;9.53;97.08;99104.88;1740437;81;21059;-79
2023/01/03 12:03:14;;;;;;;7.50;4.62;;;;;;;9.46;94.86;99105.56;1737201;80;21042;-76
2023/01/03 12:05:50;;;;;;;7.20;3.80;;;;;;;9.48;96.63;99102.07;1751769;81;21007;-79
2023/01/03 12:08:56;;;;;;;15.78;8.00;;;;;;;9.49;96.74;99105.09;1739263;80;21532;-79
2023/01/03 12:11:58;;;;;;;10.18;7.40;;;;;;;9.53;95.77;99099.99;1740810;81;21203;-77
2023/01/03 12:14:37;;;;;;;8.25;5.65;;;;;;;9.45;96.07;99096.34;1748996;80;20989;-77
2023/01/03 12:17:21;;;;;;;9.73;4.33;;;;;;;9.42;96.61;99100.38;1746594;79;20995;-80
2023/01/03 12:19:53;;;;;;;12.82;6.67;;;;;;;9.38;94.20;99099.74;1745501;81;21130;-79
2023/01/03 12:22:36;;;;;;;14.75;7.87;;;;;;;9.32;95.32;99096.97;1747226;80;21014;-79
2023/01/03 12:25:18;;;;;;;12.53;7.25;;;;;;;9.26;95.35;99100.64;1758085;80;21391;-76
2023/01/03 12:27:59;;;;;;;10.40;5.45;;;;;;;9.15;90.72;99097.48;1737722;80;21484;-77
2023/01/03 12:30:47;;;;;;;7.22;3.87;;;;;;;9.13;92.30;99093.37;1741842;80;21009;-77
2023/01/03 12:33:44;;;;;;;10.90;5.17;;;;;;;8.95;85.16;99106.57;1754366;80;21024;-79
2023/01/03 12:36:36;;;;;;;8.88;5.12;;;;;;;8.91;89.75;99091.38;1753538;80;21511;-79
2023/01/03 12:39:42;;;;;;;9.90;5.55;;;;;;;8.95;91.14;99099.28;1760360;80;21096;-78
2023/01/03 12:42:32;;;;;;;11.57;6.30;;;;;;;8.96;90.64;99102.80;1751219;80;21036;-77
2023/01/03 12:45:13;;;;;;;15.00;8.53;;;;;;;9.02;90.54;99092.38;1788463;79;21007;-79
2023/01/03 12:48:14;;;;;;;40.50;20.00;;;;;;;9.00;89.35;99096.69;1748413;80;21053;-79
2023/01/03 12:50:46;;;;;;;48.10;27.62;;;;;;;9.00;89.35;99096.69;1747058;80;21448;-77
2023/01/03 12:53:39;;;;;;;45.98;30.17;;;;;;;8.93;87.40;99096.00;1736571;80;21452;-77
2023/01/03 12:56:39;;;;;;;48.70;29.80;;;;;;;9.01;90.02;99091.56;1740413;81;21007;-77
2023/01/03 12:59:37;;;;;;;37.30;22.42;;;;;;;9.01;90.02;99091.56;1753693;81;21035;-79